sensor_id;sensor_type;location;lat;lon;timestamp;temperature;humidity
7240;DHT22;3661;53.288;10.458;2024-02-28T00:00:22;3.60;99.90
7240;DHT22;3661;53.288;10.458;2024-02-28T00:02:54;3.60;99.90
7240;DHT22;3661;53.288;10.458;2024-02-28T00:05:26;3.60;99.90
7240;DHT22;3661;53.288;10.458;2024-02-28T00:07:58;3.60;99.90
7240;DHT22;3661;53.288;10.458;2024-02-28T00:10:32;3.60;99.90
7240;DHT22;3661;53.288;10.458;2024-02-28T00:13:04;3.60;99.90
7240;DHT22;3661;53.288;10.458;2024-02-28T00:15:36;3.60;99.90
7240;DHT22;3661;53.288;10.458;2024-02-28T00:18:09;3.60;99.90
7240;DHT22;3661;53.288;10.458;2024-02-28T00:20:41;3.60;99.90
7240;DHT22;3661;53.288;10.458;2024-02-28T00:23:13;3.60;99.90
7240;DHT22;3661;53.288;10.458;2024-02-28T00:25:47;3.50;99.90
7240;DHT22;3661;53.288;10.458;2024-02-28T00:28:19;3.50;99.90
7240;DHT22;3661;53.288;10.458;2024-02-28T00:30:51;3.50;99.90
7240;DHT22;3661;53.288;10.458;2024-02-28T00:33:23;3.50;99.90
7240;DHT22;3661;53.288;10.458;2024-02-28T00:35:55;3.50;99.90
7240;DHT22;3661;53.288;10.458;2024-02-28T00:38:27;3.50;99.90
7240;DHT22;3661;53.288;10.458;2024-02-28T00:41:01;3.50;99.90
7240;DHT22;3661;53.288;10.458;2024-02-28T00:43:33;3.50;99.90
7240;DHT22;3661;53.288;10.458;2024-02-28T00:46:05;3.50;99.90
7240;DHT22;3661;53.288;10.458;2024-02-28T00:48:41;3.50;99.90
7240;DHT22;3661;53.288;10.458;2024-02-28T00:51:14;3.50;99.90
7240;DHT22;3661;53.288;10.458;2024-02-28T00:53:46;3.50;99.90
7240;DHT22;3661;53.288;10.458;2024-02-28T00:56:20;3.50;99.90
7240;DHT22;3661;53.288;10.458;2024-02-28T00:58:52;3.50;99.90
7240;DHT22;3661;53.288;10.458;2024-02-28T01:01:26;3.50;99.90
7240;DHT22;3661;53.288;10.458;2024-02-28T01:03:59;3.50;99.90
7240;DHT22;3661;53.288;10.458;2024-02-28T01:06:31;3.50;99.90
7240;DHT22;3661;53.288;10.458;2024-02-28T01:09:03;3.50;99.90
7240;DHT22;3661;53.288;10.458;2024-02-28T01:11:37;3.50;99.90
7240;DHT22;3661;53.288;10.458;2024-02-28T01:14:09;3.50;99.90
7240;DHT22;3661;53.288;10.458;2024-02-28T01:16:41;3.50;99.90
7240;DHT22;3661;53.288;10.458;2024-02-28T01:19:15;3.50;99.90
7240;DHT22;3661;53.288;10.458;2024-02-28T01:21:47;3.50;99.90
7240;DHT22;3661;53.288;10.458;2024-02-28T01:24:18;3.40;99.90
7240;DHT22;3661;53.288;10.458;2024-02-28T01:26:52;3.40;99.90
7240;DHT22;3661;53.288;10.458;2024-02-28T01:29:24;3.50;99.90
7240;DHT22;3661;53.288;10.458;2024-02-28T01:31:56;3.40;99.90
7240;DHT22;3661;53.288;10.458;2024-02-28T01:34:28;3.40;99.90
7240;DHT22;3661;53.288;10.458;2024-02-28T01:37:00;3.40;99.90
7240;DHT22;3661;53.288;10.458;2024-02-28T01:39:32;3.40;99.90
7240;DHT22;3661;53.288;10.458;2024-02-28T01:42:05;3.40;99.90
7240;DHT22;3661;53.288;10.458;2024-02-28T01:44:44;3.40;99.90
7240;DHT22;3661;53.288;10.458;2024-02-28T01:47:18;3.40;99.90
7240;DHT22;3661;53.288;10.458;2024-02-28T01:49:50;3.40;99.90
7240;DHT22;3661;53.288;10.458;2024-02-28T01:52:24;3.40;99.90
7240;DHT22;3661;53.288;10.458;2024-02-28T01:54:57;3.40;99.90
7240;DHT22;3661;53.288;10.458;2024-02-28T01:57:30;3.40;99.90
7240;DHT22;3661;53.288;10.458;2024-02-28T02:00:03;3.40;99.90
7240;DHT22;3661;53.288;10.458;2024-02-28T02:02:35;3.30;99.90
7240;DHT22;3661;53.288;10.458;2024-02-28T02:05:09;3.30;99.90
7240;DHT22;3661;53.288;10.458;2024-02-28T02:07:41;3.30;99.90
7240;DHT22;3661;53.288;10.458;2024-02-28T02:10:13;3.30;99.90
7240;DHT22;3661;53.288;10.458;2024-02-28T02:12:47;3.30;99.90
7240;DHT22;3661;53.288;10.458;2024-02-28T02:15:19;3.30;99.90
7240;DHT22;3661;53.288;10.458;2024-02-28T02:17:51;3.30;99.90
7240;DHT22;3661;53.288;10.458;2024-02-28T02:20:26;3.30;99.90
7240;DHT22;3661;53.288;10.458;2024-02-28T02:23:00;3.30;99.90
7240;DHT22;3661;53.288;10.458;2024-02-28T02:25:32;3.20;99.90
7240;DHT22;3661;53.288;10.458;2024-02-28T02:28:04;3.20;99.90
7240;DHT22;3661;53.288;10.458;2024-02-28T02:30:37;3.20;99.90
7240;DHT22;3661;53.288;10.458;2024-02-28T02:33:09;3.20;99.90
7240;DHT22;3661;53.288;10.458;2024-02-28T02:35:41;3.20;99.90
7240;DHT22;3661;53.288;10.458;2024-02-28T02:38:15;3.20;99.90
7240;DHT22;3661;53.288;10.458;2024-02-28T02:40:48;3.10;99.90
7240;DHT22;3661;53.288;10.458;2024-02-28T02:43:20;3.10;99.90
7240;DHT22;3661;53.288;10.458;2024-02-28T02:45:54;3.10;99.90
7240;DHT22;3661;53.288;10.458;2024-02-28T02:48:26;3.10;99.90
7240;DHT22;3661;53.288;10.458;2024-02-28T02:50:58;3.10;99.90
7240;DHT22;3661;53.288;10.458;2024-02-28T02:53:31;3.10;99.90
7240;DHT22;3661;53.288;10.458;2024-02-28T02:56:04;3.10;99.90
7240;DHT22;3661;53.288;10.458;2024-02-28T02:58:36;3.10;99.90
7240;DHT22;3661;53.288;10.458;2024-02-28T03:01:08;3.10;99.90
7240;DHT22;3661;53.288;10.458;2024-02-28T03:03:40;3.10;99.90
7240;DHT22;3661;53.288;10.458;2024-02-28T03:06:12;3.00;99.90
7240;DHT22;3661;53.288;10.458;2024-02-28T03:08:46;3.00;99.90
7240;DHT22;3661;53.288;10.458;2024-02-28T03:11:18;3.00;99.90
7240;DHT22;3661;53.288;10.458;2024-02-28T03:13:50;3.00;99.90
7240;DHT22;3661;53.288;10.458;2024-02-28T03:16:22;3.00;99.90
7240;DHT22;3661;53.288;10.458;2024-02-28T03:18:54;2.90;99.90
7240;DHT22;3661;53.288;10.458;2024-02-28T03:21:33;2.90;99.90
7240;DHT22;3661;53.288;10.458;2024-02-28T03:24:07;2.90;99.90
7240;DHT22;3661;53.288;10.458;2024-02-28T03:26:39;2.90;99.90
7240;DHT22;3661;53.288;10.458;2024-02-28T03:29:11;2.90;99.90
7240;DHT22;3661;53.288;10.458;2024-02-28T03:31:43;2.80;99.90
7240;DHT22;3661;53.288;10.458;2024-02-28T03:34:15;2.80;99.90
7240;DHT22;3661;53.288;10.458;2024-02-28T03:36:48;2.80;99.90
7240;DHT22;3661;53.288;10.458;2024-02-28T03:39:21;2.80;99.90
7240;DHT22;3661;53.288;10.458;2024-02-28T03:41:53;2.80;99.90
7240;DHT22;3661;53.288;10.458;2024-02-28T03:44:25;2.70;99.90
7240;DHT22;3661;53.288;10.458;2024-02-28T03:46:57;2.70;99.90
7240;DHT22;3661;53.288;10.458;2024-02-28T03:49:29;2.70;99.90
7240;DHT22;3661;53.288;10.458;2024-02-28T03:52:01;2.70;99.90
7240;DHT22;3661;53.288;10.458;2024-02-28T03:54:37;2.70;99.90
7240;DHT22;3661;53.288;10.458;2024-02-28T03:57:09;2.70;99.90
7240;DHT22;3661;53.288;10.458;2024-02-28T03:59:41;2.70;99.90
7240;DHT22;3661;53.288;10.458;2024-02-28T04:02:13;2.70;99.90
7240;DHT22;3661;53.288;10.458;2024-02-28T04:04:45;2.70;99.90
7240;DHT22;3661;53.288;10.458;2024-02-28T04:07:18;2.60;99.90
7240;DHT22;3661;53.288;10.458;2024-02-28T04:09:51;2.60;99.90
7240;DHT22;3661;53.288;10.458;2024-02-28T04:12:23;2.60;99.90
7240;DHT22;3661;53.288;10.458;2024-02-28T04:14:55;2.60;99.90
7240;DHT22;3661;53.288;10.458;2024-02-28T04:17:27;2.60;99.90
7240;DHT22;3661;53.288;10.458;2024-02-28T04:19:59;2.60;99.90
7240;DHT22;3661;53.288;10.458;2024-02-28T04:22:35;2.60;99.90
7240;DHT22;3661;53.288;10.458;2024-02-28T04:25:09;2.60;99.90
7240;DHT22;3661;53.288;10.458;2024-02-28T04:27:41;2.60;99.90
7240;DHT22;3661;53.288;10.458;2024-02-28T04:30:14;2.60;99.90
7240;DHT22;3661;53.288;10.458;2024-02-28T04:32:46;2.60;99.90
7240;DHT22;3661;53.288;10.458;2024-02-28T04:35:19;2.60;99.90
7240;DHT22;3661;53.288;10.458;2024-02-28T04:37:51;2.60;99.90
7240;DHT22;3661;53.288;10.458;2024-02-28T04:40:24;2.60;99.90
7240;DHT22;3661;53.288;10.458;2024-02-28T04:42:56;2.60;99.90
7240;DHT22;3661;53.288;10.458;2024-02-28T04:45:29;2.60;99.90
7240;DHT22;3661;53.288;10.458;2024-02-28T04:48:01;2.60;99.90
7240;DHT22;3661;53.288;10.458;2024-02-28T04:50:33;2.60;99.90
7240;DHT22;3661;53.288;10.458;2024-02-28T04:53:05;2.60;99.90
7240;DHT22;3661;53.288;10.458;2024-02-28T04:55:38;2.60;99.90
7240;DHT22;3661;53.288;10.458;2024-02-28T04:58:10;2.60;99.90
7240;DHT22;3661;53.288;10.458;2024-02-28T05:00:42;2.60;99.90
7240;DHT22;3661;53.288;10.458;2024-02-28T05:03:15;2.60;99.90
7240;DHT22;3661;53.288;10.458;2024-02-28T05:05:47;2.60;99.90
7240;DHT22;3661;53.288;10.458;2024-02-28T05:08:20;2.60;99.90
7240;DHT22;3661;53.288;10.458;2024-02-28T05:10:53;2.60;99.90
7240;DHT22;3661;53.288;10.458;2024-02-28T05:13:26;2.60;99.90
7240;DHT22;3661;53.288;10.458;2024-02-28T05:15:58;2.60;99.90
7240;DHT22;3661;53.288;10.458;2024-02-28T05:18:30;2.60;99.90
7240;DHT22;3661;53.288;10.458;2024-02-28T05:21:02;2.60;99.90
7240;DHT22;3661;53.288;10.458;2024-02-28T05:23:34;2.60;99.90
7240;DHT22;3661;53.288;10.458;2024-02-28T05:26:08;2.50;99.90
7240;DHT22;3661;53.288;10.458;2024-02-28T05:28:40;2.60;99.90
7240;DHT22;3661;53.288;10.458;2024-02-28T05:31:22;2.50;99.90
7240;DHT22;3661;53.288;10.458;2024-02-28T05:33:56;2.50;99.90
7240;DHT22;3661;53.288;10.458;2024-02-28T05:36:29;2.50;99.90
7240;DHT22;3661;53.288;10.458;2024-02-28T05:39:01;2.50;99.90
7240;DHT22;3661;53.288;10.458;2024-02-28T05:41:37;2.50;99.90
7240;DHT22;3661;53.288;10.458;2024-02-28T05:44:09;2.50;99.90
7240;DHT22;3661;53.288;10.458;2024-02-28T05:46:41;2.50;99.90
7240;DHT22;3661;53.288;10.458;2024-02-28T05:49:13;2.50;99.90
7240;DHT22;3661;53.288;10.458;2024-02-28T05:51:45;2.50;99.90
7240;DHT22;3661;53.288;10.458;2024-02-28T05:54:18;2.50;99.90
7240;DHT22;3661;53.288;10.458;2024-02-28T05:56:51;2.50;99.90
7240;DHT22;3661;53.288;10.458;2024-02-28T05:59:24;2.50;99.90
7240;DHT22;3661;53.288;10.458;2024-02-28T06:01:57;2.50;99.90
7240;DHT22;3661;53.288;10.458;2024-02-28T06:04:29;2.50;99.90
7240;DHT22;3661;53.288;10.458;2024-02-28T06:07:01;2.50;99.90
7240;DHT22;3661;53.288;10.458;2024-02-28T06:09:33;2.50;99.90
7240;DHT22;3661;53.288;10.458;2024-02-28T06:12:07;2.50;99.90
7240;DHT22;3661;53.288;10.458;2024-02-28T06:14:39;2.50;99.90
7240;DHT22;3661;53.288;10.458;2024-02-28T06:17:11;2.50;99.90
7240;DHT22;3661;53.288;10.458;2024-02-28T06:19:43;2.50;99.90
7240;DHT22;3661;53.288;10.458;2024-02-28T06:22:15;2.50;99.90
7240;DHT22;3661;53.288;10.458;2024-02-28T06:24:49;2.50;99.90
7240;DHT22;3661;53.288;10.458;2024-02-28T06:27:23;2.50;99.90
7240;DHT22;3661;53.288;10.458;2024-02-28T06:29:59;2.50;99.90
7240;DHT22;3661;53.288;10.458;2024-02-28T06:32:33;2.50;99.90
7240;DHT22;3661;53.288;10.458;2024-02-28T06:37:38;2.40;99.90
7240;DHT22;3661;53.288;10.458;2024-02-28T06:40:11;2.40;99.90
7240;DHT22;3661;53.288;10.458;2024-02-28T06:42:44;2.40;99.90
7240;DHT22;3661;53.288;10.458;2024-02-28T06:45:16;2.40;99.90
7240;DHT22;3661;53.288;10.458;2024-02-28T06:47:49;2.40;99.90
7240;DHT22;3661;53.288;10.458;2024-02-28T06:50:21;2.40;99.90
7240;DHT22;3661;53.288;10.458;2024-02-28T06:52:53;2.40;99.90
7240;DHT22;3661;53.288;10.458;2024-02-28T06:55:25;2.40;99.90
7240;DHT22;3661;53.288;10.458;2024-02-28T06:58:01;2.40;99.90
7240;DHT22;3661;53.288;10.458;2024-02-28T07:00:34;2.40;99.90
7240;DHT22;3661;53.288;10.458;2024-02-28T07:03:06;2.40;99.90
7240;DHT22;3661;53.288;10.458;2024-02-28T07:05:38;2.40;99.90
7240;DHT22;3661;53.288;10.458;2024-02-28T07:08:11;2.40;99.90
7240;DHT22;3661;53.288;10.458;2024-02-28T07:10:43;2.40;99.90
7240;DHT22;3661;53.288;10.458;2024-02-28T07:13:19;2.40;99.90
7240;DHT22;3661;53.288;10.458;2024-02-28T07:15:51;2.40;99.90
7240;DHT22;3661;53.288;10.458;2024-02-28T07:18:25;2.40;99.90
7240;DHT22;3661;53.288;10.458;2024-02-28T07:20:59;2.40;99.90
7240;DHT22;3661;53.288;10.458;2024-02-28T07:23:32;2.40;99.90
7240;DHT22;3661;53.288;10.458;2024-02-28T07:26:04;2.40;99.90
7240;DHT22;3661;53.288;10.458;2024-02-28T07:28:37;2.40;99.90
7240;DHT22;3661;53.288;10.458;2024-02-28T07:31:14;2.50;99.90
7240;DHT22;3661;53.288;10.458;2024-02-28T07:33:47;2.50;99.90
7240;DHT22;3661;53.288;10.458;2024-02-28T07:36:19;2.50;99.90
7240;DHT22;3661;53.288;10.458;2024-02-28T07:38:51;2.60;99.90
7240;DHT22;3661;53.288;10.458;2024-02-28T07:41:23;2.60;99.90
7240;DHT22;3661;53.288;10.458;2024-02-28T07:44:00;2.60;99.90
7240;DHT22;3661;53.288;10.458;2024-02-28T07:46:32;2.70;99.90
7240;DHT22;3661;53.288;10.458;2024-02-28T07:49:04;2.70;99.90
7240;DHT22;3661;53.288;10.458;2024-02-28T07:51:37;2.70;99.90
7240;DHT22;3661;53.288;10.458;2024-02-28T07:54:09;2.80;99.90
7240;DHT22;3661;53.288;10.458;2024-02-28T07:56:41;2.80;99.90
7240;DHT22;3661;53.288;10.458;2024-02-28T07:59:14;2.80;99.90
7240;DHT22;3661;53.288;10.458;2024-02-28T08:01:47;2.80;99.90
7240;DHT22;3661;53.288;10.458;2024-02-28T08:04:19;2.90;99.90
7240;DHT22;3661;53.288;10.458;2024-02-28T08:06:51;2.90;99.90
7240;DHT22;3661;53.288;10.458;2024-02-28T08:09:24;2.90;99.90
7240;DHT22;3661;53.288;10.458;2024-02-28T08:11:56;3.00;99.90
7240;DHT22;3661;53.288;10.458;2024-02-28T08:14:31;3.00;99.90
7240;DHT22;3661;53.288;10.458;2024-02-28T08:17:03;3.10;99.90
7240;DHT22;3661;53.288;10.458;2024-02-28T08:19:35;3.10;99.90
7240;DHT22;3661;53.288;10.458;2024-02-28T08:22:07;3.20;99.90
7240;DHT22;3661;53.288;10.458;2024-02-28T08:24:40;3.20;99.90
7240;DHT22;3661;53.288;10.458;2024-02-28T08:27:12;3.30;99.90
7240;DHT22;3661;53.288;10.458;2024-02-28T08:29:46;3.30;99.90
7240;DHT22;3661;53.288;10.458;2024-02-28T08:32:18;3.40;99.90
7240;DHT22;3661;53.288;10.458;2024-02-28T08:34:51;3.40;99.90
7240;DHT22;3661;53.288;10.458;2024-02-28T08:37:25;3.50;99.90
7240;DHT22;3661;53.288;10.458;2024-02-28T08:39:58;3.50;99.90
7240;DHT22;3661;53.288;10.458;2024-02-28T08:42:30;3.60;99.90
7240;DHT22;3661;53.288;10.458;2024-02-28T08:45:04;3.60;99.90
7240;DHT22;3661;53.288;10.458;2024-02-28T08:47:37;3.70;99.90
7240;DHT22;3661;53.288;10.458;2024-02-28T08:50:11;3.70;99.90
7240;DHT22;3661;53.288;10.458;2024-02-28T08:52:43;3.70;99.90
7240;DHT22;3661;53.288;10.458;2024-02-28T08:55:15;3.80;99.90
7240;DHT22;3661;53.288;10.458;2024-02-28T08:57:49;3.80;99.90
7240;DHT22;3661;53.288;10.458;2024-02-28T09:00:26;3.80;99.90
7240;DHT22;3661;53.288;10.458;2024-02-28T09:02:58;3.90;99.90
7240;DHT22;3661;53.288;10.458;2024-02-28T09:05:30;3.90;99.90
7240;DHT22;3661;53.288;10.458;2024-02-28T09:08:03;3.90;99.90
7240;DHT22;3661;53.288;10.458;2024-02-28T09:10:35;4.00;99.90
7240;DHT22;3661;53.288;10.458;2024-02-28T09:13:07;4.10;99.90
7240;DHT22;3661;53.288;10.458;2024-02-28T09:15:42;4.10;99.90
7240;DHT22;3661;53.288;10.458;2024-02-28T09:18:14;4.30;99.90
7240;DHT22;3661;53.288;10.458;2024-02-28T09:20:46;4.40;99.90
7240;DHT22;3661;53.288;10.458;2024-02-28T09:23:18;4.50;99.90
7240;DHT22;3661;53.288;10.458;2024-02-28T09:25:50;4.60;99.90
7240;DHT22;3661;53.288;10.458;2024-02-28T09:28:22;4.70;99.90
7240;DHT22;3661;53.288;10.458;2024-02-28T09:30:56;4.80;99.90
7240;DHT22;3661;53.288;10.458;2024-02-28T09:33:28;5.00;99.90
7240;DHT22;3661;53.288;10.458;2024-02-28T09:36:02;5.10;99.90
7240;DHT22;3661;53.288;10.458;2024-02-28T09:38:35;5.20;99.90
7240;DHT22;3661;53.288;10.458;2024-02-28T09:41:08;5.40;99.90
7240;DHT22;3661;53.288;10.458;2024-02-28T09:43:46;5.50;99.90
7240;DHT22;3661;53.288;10.458;2024-02-28T09:46:23;5.70;99.90
7240;DHT22;3661;53.288;10.458;2024-02-28T09:48:56;5.80;99.90
7240;DHT22;3661;53.288;10.458;2024-02-28T09:51:28;6.00;99.90
7240;DHT22;3661;53.288;10.458;2024-02-28T09:54:02;6.10;99.90
7240;DHT22;3661;53.288;10.458;2024-02-28T09:56:35;6.20;99.90
7240;DHT22;3661;53.288;10.458;2024-02-28T09:59:08;6.30;99.90
7240;DHT22;3661;53.288;10.458;2024-02-28T10:01:45;6.50;99.90
7240;DHT22;3661;53.288;10.458;2024-02-28T10:04:19;6.60;99.90
7240;DHT22;3661;53.288;10.458;2024-02-28T10:06:52;6.80;99.90
7240;DHT22;3661;53.288;10.458;2024-02-28T10:09:24;6.90;99.90
7240;DHT22;3661;53.288;10.458;2024-02-28T10:11:57;7.00;99.90
7240;DHT22;3661;53.288;10.458;2024-02-28T10:14:29;7.10;99.90
7240;DHT22;3661;53.288;10.458;2024-02-28T10:17:03;7.20;99.90
7240;DHT22;3661;53.288;10.458;2024-02-28T10:19:37;7.20;99.90
7240;DHT22;3661;53.288;10.458;2024-02-28T10:22:09;7.30;99.90
7240;DHT22;3661;53.288;10.458;2024-02-28T10:24:41;7.40;99.90
7240;DHT22;3661;53.288;10.458;2024-02-28T10:27:16;7.40;99.90
7240;DHT22;3661;53.288;10.458;2024-02-28T10:29:50;7.50;99.90
7240;DHT22;3661;53.288;10.458;2024-02-28T10:32:23;7.60;99.90
7240;DHT22;3661;53.288;10.458;2024-02-28T10:34:55;7.70;99.90
7240;DHT22;3661;53.288;10.458;2024-02-28T10:37:29;7.70;99.90
7240;DHT22;3661;53.288;10.458;2024-02-28T10:40:02;7.80;99.90
7240;DHT22;3661;53.288;10.458;2024-02-28T10:42:37;7.90;99.90
7240;DHT22;3661;53.288;10.458;2024-02-28T10:45:10;7.90;99.90
7240;DHT22;3661;53.288;10.458;2024-02-28T10:47:44;8.00;99.90
7240;DHT22;3661;53.288;10.458;2024-02-28T10:50:17;8.00;99.90
7240;DHT22;3661;53.288;10.458;2024-02-28T10:52:49;8.00;99.90
7240;DHT22;3661;53.288;10.458;2024-02-28T10:55:25;8.10;99.90
7240;DHT22;3661;53.288;10.458;2024-02-28T10:58:01;8.10;99.90
7240;DHT22;3661;53.288;10.458;2024-02-28T11:00:34;8.20;99.90
7240;DHT22;3661;53.288;10.458;2024-02-28T11:03:13;8.20;99.90
7240;DHT22;3661;53.288;10.458;2024-02-28T11:05:47;8.20;99.90
7240;DHT22;3661;53.288;10.458;2024-02-28T11:08:24;8.30;99.90
7240;DHT22;3661;53.288;10.458;2024-02-28T11:10:58;8.40;99.90
7240;DHT22;3661;53.288;10.458;2024-02-28T11:13:30;8.40;99.90
7240;DHT22;3661;53.288;10.458;2024-02-28T11:16:07;8.40;99.90
7240;DHT22;3661;53.288;10.458;2024-02-28T11:18:49;8.50;99.90
7240;DHT22;3661;53.288;10.458;2024-02-28T11:21:23;8.50;99.90
7240;DHT22;3661;53.288;10.458;2024-02-28T11:24:00;8.60;99.90
7240;DHT22;3661;53.288;10.458;2024-02-28T11:26:34;8.60;99.90
7240;DHT22;3661;53.288;10.458;2024-02-28T11:29:07;8.60;99.90
7240;DHT22;3661;53.288;10.458;2024-02-28T11:31:39;8.70;99.90
7240;DHT22;3661;53.288;10.458;2024-02-28T11:34:13;8.70;99.90
7240;DHT22;3661;53.288;10.458;2024-02-28T11:36:47;8.80;99.90
7240;DHT22;3661;53.288;10.458;2024-02-28T11:39:20;8.80;99.90
7240;DHT22;3661;53.288;10.458;2024-02-28T11:41:55;8.90;99.90
7240;DHT22;3661;53.288;10.458;2024-02-28T11:44:27;9.00;99.90
7240;DHT22;3661;53.288;10.458;2024-02-28T11:46:59;9.00;99.90
7240;DHT22;3661;53.288;10.458;2024-02-28T11:49:34;9.10;99.90
7240;DHT22;3661;53.288;10.458;2024-02-28T11:52:06;9.20;99.90
7240;DHT22;3661;53.288;10.458;2024-02-28T11:54:38;9.30;99.90
7240;DHT22;3661;53.288;10.458;2024-02-28T11:57:11;9.40;99.90
7240;DHT22;3661;53.288;10.458;2024-02-28T11:59:44;9.50;99.90
7240;DHT22;3661;53.288;10.458;2024-02-28T12:02:17;9.60;99.90
7240;DHT22;3661;53.288;10.458;2024-02-28T12:04:51;9.70;99.90
7240;DHT22;3661;53.288;10.458;2024-02-28T12:07:25;9.80;99.90
7240;DHT22;3661;53.288;10.458;2024-02-28T12:09:57;9.80;99.90
7240;DHT22;3661;53.288;10.458;2024-02-28T12:12:29;9.90;99.90
7240;DHT22;3661;53.288;10.458;2024-02-28T12:15:02;10.00;99.90
7240;DHT22;3661;53.288;10.458;2024-02-28T12:17:36;10.10;99.90
7240;DHT22;3661;53.288;10.458;2024-02-28T12:20:10;10.10;99.90
7240;DHT22;3661;53.288;10.458;2024-02-28T12:22:42;10.20;99.90
7240;DHT22;3661;53.288;10.458;2024-02-28T12:25:15;10.20;99.90
7240;DHT22;3661;53.288;10.458;2024-02-28T12:27:47;10.30;99.90
7240;DHT22;3661;53.288;10.458;2024-02-28T12:30:19;10.30;99.90
7240;DHT22;3661;53.288;10.458;2024-02-28T12:32:52;10.40;99.90
7240;DHT22;3661;53.288;10.458;2024-02-28T12:35:26;10.40;99.90
7240;DHT22;3661;53.288;10.458;2024-02-28T12:37:58;10.50;99.90
7240;DHT22;3661;53.288;10.458;2024-02-28T12:40:31;10.50;99.90
7240;DHT22;3661;53.288;10.458;2024-02-28T12:43:03;10.60;99.90
7240;DHT22;3661;53.288;10.458;2024-02-28T12:45:35;10.60;99.90
7240;DHT22;3661;53.288;10.458;2024-02-28T12:48:07;10.60;99.90
7240;DHT22;3661;53.288;10.458;2024-02-28T12:50:41;10.60;99.90
7240;DHT22;3661;53.288;10.458;2024-02-28T12:53:13;10.60;99.90
7240;DHT22;3661;53.288;10.458;2024-02-28T12:55:46;10.60;99.90
7240;DHT22;3661;53.288;10.458;2024-02-28T12:58:18;10.60;99.90
7240;DHT22;3661;53.288;10.458;2024-02-28T13:00:56;10.60;99.90
7240;DHT22;3661;53.288;10.458;2024-02-28T13:03:35;10.60;99.90
7240;DHT22;3661;53.288;10.458;2024-02-28T13:06:08;10.60;99.90
7240;DHT22;3661;53.288;10.458;2024-02-28T13:08:41;10.70;99.90
7240;DHT22;3661;53.288;10.458;2024-02-28T13:11:13;10.70;99.90
7240;DHT22;3661;53.288;10.458;2024-02-28T13:13:45;10.70;99.90
7240;DHT22;3661;53.288;10.458;2024-02-28T13:16:18;10.70;99.90
7240;DHT22;3661;53.288;10.458;2024-02-28T13:18:52;10.70;99.90
7240;DHT22;3661;53.288;10.458;2024-02-28T13:21:25;10.70;99.90
7240;DHT22;3661;53.288;10.458;2024-02-28T13:23:57;10.70;99.90
7240;DHT22;3661;53.288;10.458;2024-02-28T13:26:30;10.70;99.90
7240;DHT22;3661;53.288;10.458;2024-02-28T13:29:02;10.70;99.90
7240;DHT22;3661;53.288;10.458;2024-02-28T13:31:34;10.70;99.90
7240;DHT22;3661;53.288;10.458;2024-02-28T13:34:06;10.70;99.90
7240;DHT22;3661;53.288;10.458;2024-02-28T13:36:40;10.70;99.90
7240;DHT22;3661;53.288;10.458;2024-02-28T13:39:15;10.70;99.90
7240;DHT22;3661;53.288;10.458;2024-02-28T13:41:47;10.70;99.90
7240;DHT22;3661;53.288;10.458;2024-02-28T13:44:22;10.70;99.90
7240;DHT22;3661;53.288;10.458;2024-02-28T13:46:54;10.70;99.90
7240;DHT22;3661;53.288;10.458;2024-02-28T13:49:26;10.70;99.90
7240;DHT22;3661;53.288;10.458;2024-02-28T13:52:00;10.70;99.90
7240;DHT22;3661;53.288;10.458;2024-02-28T13:54:32;10.70;99.90
7240;DHT22;3661;53.288;10.458;2024-02-28T13:57:05;10.70;99.90
7240;DHT22;3661;53.288;10.458;2024-02-28T13:59:40;10.60;99.90
7240;DHT22;3661;53.288;10.458;2024-02-28T14:02:12;10.60;99.90
7240;DHT22;3661;53.288;10.458;2024-02-28T14:04:44;10.60;99.90
7240;DHT22;3661;53.288;10.458;2024-02-28T14:07:20;10.50;99.90
7240;DHT22;3661;53.288;10.458;2024-02-28T14:09:52;10.60;99.90
7240;DHT22;3661;53.288;10.458;2024-02-28T14:12:25;10.60;99.90
7240;DHT22;3661;53.288;10.458;2024-02-28T14:14:57;10.60;99.90
7240;DHT22;3661;53.288;10.458;2024-02-28T14:17:29;10.60;99.90
7240;DHT22;3661;53.288;10.458;2024-02-28T14:20:01;10.60;99.90
7240;DHT22;3661;53.288;10.458;2024-02-28T14:22:35;10.60;99.90
7240;DHT22;3661;53.288;10.458;2024-02-28T14:25:12;10.60;99.90
7240;DHT22;3661;53.288;10.458;2024-02-28T14:27:45;10.60;99.90
7240;DHT22;3661;53.288;10.458;2024-02-28T14:30:17;10.60;99.90
7240;DHT22;3661;53.288;10.458;2024-02-28T14:32:50;10.60;99.90
7240;DHT22;3661;53.288;10.458;2024-02-28T14:35:22;10.60;99.90
7240;DHT22;3661;53.288;10.458;2024-02-28T14:37:56;10.50;99.90
7240;DHT22;3661;53.288;10.458;2024-02-28T14:40:28;10.50;99.90
7240;DHT22;3661;53.288;10.458;2024-02-28T14:43:00;10.50;99.90
7240;DHT22;3661;53.288;10.458;2024-02-28T14:45:32;10.50;99.90
7240;DHT22;3661;53.288;10.458;2024-02-28T14:48:05;10.40;99.90
7240;DHT22;3661;53.288;10.458;2024-02-28T14:50:38;10.40;99.90
7240;DHT22;3661;53.288;10.458;2024-02-28T14:53:11;10.40;99.90
7240;DHT22;3661;53.288;10.458;2024-02-28T14:55:44;10.40;99.90
7240;DHT22;3661;53.288;10.458;2024-02-28T14:58:17;10.40;99.90
7240;DHT22;3661;53.288;10.458;2024-02-28T15:00:50;10.40;99.90
7240;DHT22;3661;53.288;10.458;2024-02-28T15:03:22;10.40;99.90
7240;DHT22;3661;53.288;10.458;2024-02-28T15:05:54;10.30;99.90
7240;DHT22;3661;53.288;10.458;2024-02-28T15:08:27;10.30;99.90
7240;DHT22;3661;53.288;10.458;2024-02-28T15:10:59;10.20;99.90
7240;DHT22;3661;53.288;10.458;2024-02-28T15:13:31;10.30;99.90
7240;DHT22;3661;53.288;10.458;2024-02-28T15:16:04;10.20;99.90
7240;DHT22;3661;53.288;10.458;2024-02-28T15:18:36;10.20;99.90
7240;DHT22;3661;53.288;10.458;2024-02-28T15:21:11;10.20;99.90
7240;DHT22;3661;53.288;10.458;2024-02-28T15:23:44;10.20;99.90
7240;DHT22;3661;53.288;10.458;2024-02-28T15:26:16;10.10;99.90
7240;DHT22;3661;53.288;10.458;2024-02-28T15:28:48;10.10;99.90
7240;DHT22;3661;53.288;10.458;2024-02-28T15:31:21;10.00;99.90
7240;DHT22;3661;53.288;10.458;2024-02-28T15:33:53;10.00;99.90
7240;DHT22;3661;53.288;10.458;2024-02-28T15:36:25;9.90;99.90
7240;DHT22;3661;53.288;10.458;2024-02-28T15:38:58;9.90;99.90
7240;DHT22;3661;53.288;10.458;2024-02-28T15:41:30;9.80;99.90
7240;DHT22;3661;53.288;10.458;2024-02-28T15:44:02;9.80;99.90
7240;DHT22;3661;53.288;10.458;2024-02-28T15:46:35;9.70;99.90
7240;DHT22;3661;53.288;10.458;2024-02-28T15:49:08;9.70;99.90
7240;DHT22;3661;53.288;10.458;2024-02-28T15:51:40;9.60;99.90
7240;DHT22;3661;53.288;10.458;2024-02-28T15:54:14;9.60;99.90
7240;DHT22;3661;53.288;10.458;2024-02-28T15:56:46;9.50;99.90
7240;DHT22;3661;53.288;10.458;2024-02-28T15:59:19;9.50;99.90
7240;DHT22;3661;53.288;10.458;2024-02-28T16:01:51;9.40;99.90
7240;DHT22;3661;53.288;10.458;2024-02-28T16:04:24;9.40;99.90
7240;DHT22;3661;53.288;10.458;2024-02-28T16:06:56;9.30;99.90
7240;DHT22;3661;53.288;10.458;2024-02-28T16:09:31;9.30;99.90
7240;DHT22;3661;53.288;10.458;2024-02-28T16:12:05;9.30;99.90
7240;DHT22;3661;53.288;10.458;2024-02-28T16:14:37;9.30;99.90
7240;DHT22;3661;53.288;10.458;2024-02-28T16:17:09;9.20;99.90
7240;DHT22;3661;53.288;10.458;2024-02-28T16:19:46;9.10;99.90
7240;DHT22;3661;53.288;10.458;2024-02-28T16:22:18;9.10;99.90
7240;DHT22;3661;53.288;10.458;2024-02-28T16:24:54;9.10;99.90
7240;DHT22;3661;53.288;10.458;2024-02-28T16:27:26;9.00;99.90
7240;DHT22;3661;53.288;10.458;2024-02-28T16:29:58;9.00;99.90
7240;DHT22;3661;53.288;10.458;2024-02-28T16:32:31;8.90;99.90
7240;DHT22;3661;53.288;10.458;2024-02-28T16:35:04;8.90;99.90
7240;DHT22;3661;53.288;10.458;2024-02-28T16:37:38;8.80;99.90